sensor_id;sensor_type;location;lat;lon;timestamp;P1;durP1;ratioP1;P2;durP2;ratioP2
19087;SDS011;9676;50.916;13.352;2022-09-25T00:00:55;12.40;;;11.20;;
19087;SDS011;9676;50.916;13.352;2022-09-25T00:03:45;12.70;;;11.10;;
19087;SDS011;9676;50.916;13.352;2022-09-25T00:06:35;12.70;;;11.50;;
19087;SDS011;9676;50.916;13.352;2022-09-25T00:09:24;13.97;;;11.83;;
19087;SDS011;9676;50.916;13.352;2022-09-25T00:12:13;12.30;;;11.10;;
19087;SDS011;9676;50.916;13.352;2022-09-25T00:15:04;12.60;;;10.80;;
19087;SDS011;9676;50.916;13.352;2022-09-25T00:17:55;12.30;;;11.10;;
19087;SDS011;9676;50.916;13.352;2022-09-25T00:20:44;12.33;;;11.20;;
19087;SDS011;9676;50.916;13.352;2022-09-25T00:23:34;13.00;;;11.80;;
19087;SDS011;9676;50.916;13.352;2022-09-25T00:26:24;12.73;;;11.50;;
19087;SDS011;9676;50.916;13.352;2022-09-25T00:29:15;12.27;;;11.17;;
19087;SDS011;9676;50.916;13.352;2022-09-25T00:32:09;12.73;;;11.30;;
19087;SDS011;9676;50.916;13.352;2022-09-25T00:34:59;11.90;;;10.80;;
19087;SDS011;9676;50.916;13.352;2022-09-25T00:37:49;12.67;;;11.47;;
19087;SDS011;9676;50.916;13.352;2022-09-25T00:40:38;12.57;;;11.30;;
19087;SDS011;9676;50.916;13.352;2022-09-25T00:43:32;12.87;;;11.63;;
19087;SDS011;9676;50.916;13.352;2022-09-25T00:46:26;13.30;;;11.90;;
19087;SDS011;9676;50.916;13.352;2022-09-25T00:49:20;12.47;;;11.27;;
19087;SDS011;9676;50.916;13.352;2022-09-25T00:52:12;12.50;;;11.20;;
19087;SDS011;9676;50.916;13.352;2022-09-25T00:55:03;12.10;;;10.87;;
19087;SDS011;9676;50.916;13.352;2022-09-25T00:57:55;11.90;;;10.77;;
19087;SDS011;9676;50.916;13.352;2022-09-25T01:00:45;12.73;;;11.50;;
19087;SDS011;9676;50.916;13.352;2022-09-25T01:03:34;12.27;;;11.10;;
19087;SDS011;9676;50.916;13.352;2022-09-25T01:06:26;12.47;;;11.17;;
19087;SDS011;9676;50.916;13.352;2022-09-25T01:09:16;12.50;;;11.30;;
19087;SDS011;9676;50.916;13.352;2022-09-25T01:12:06;12.70;;;11.50;;
19087;SDS011;9676;50.916;13.352;2022-09-25T01:14:56;12.07;;;10.93;;
19087;SDS011;9676;50.916;13.352;2022-09-25T01:17:49;12.57;;;11.37;;
19087;SDS011;9676;50.916;13.352;2022-09-25T01:20:54;13.37;;;11.30;;
19087;SDS011;9676;50.916;13.352;2022-09-25T01:24:09;11.90;;;10.80;;
19087;SDS011;9676;50.916;13.352;2022-09-25T01:27:36;12.70;;;11.50;;
19087;SDS011;9676;50.916;13.352;2022-09-25T01:30:32;12.87;;;11.63;;
19087;SDS011;9676;50.916;13.352;2022-09-25T01:33:30;13.50;;;12.20;;
19087;SDS011;9676;50.916;13.352;2022-09-25T01:36:24;12.60;;;11.40;;
19087;SDS011;9676;50.916;13.352;2022-09-25T01:39:18;12.90;;;11.60;;
19087;SDS011;9676;50.916;13.352;2022-09-25T01:42:12;12.40;;;11.07;;
19087;SDS011;9676;50.916;13.352;2022-09-25T01:45:08;12.80;;;11.60;;
19087;SDS011;9676;50.916;13.352;2022-09-25T01:48:05;13.00;;;11.80;;
19087;SDS011;9676;50.916;13.352;2022-09-25T01:50:59;12.77;;;11.47;;
19087;SDS011;9676;50.916;13.352;2022-09-25T01:53:52;12.53;;;11.30;;
19087;SDS011;9676;50.916;13.352;2022-09-25T01:56:46;12.43;;;11.23;;
19087;SDS011;9676;50.916;13.352;2022-09-25T01:59:42;12.93;;;11.63;;
19087;SDS011;9676;50.916;13.352;2022-09-25T02:02:38;13.10;;;11.80;;
19087;SDS011;9676;50.916;13.352;2022-09-25T02:05:34;12.27;;;11.17;;
19087;SDS011;9676;50.916;13.352;2022-09-25T02:08:31;13.13;;;11.87;;
19087;SDS011;9676;50.916;13.352;2022-09-25T02:11:28;13.03;;;11.73;;
19087;SDS011;9676;50.916;13.352;2022-09-25T02:14:26;13.30;;;12.07;;
19087;SDS011;9676;50.916;13.352;2022-09-25T02:17:22;12.57;;;11.23;;
19087;SDS011;9676;50.916;13.352;2022-09-25T02:20:38;12.70;;;11.50;;
19087;SDS011;9676;50.916;13.352;2022-09-25T02:23:33;13.10;;;11.83;;
19087;SDS011;9676;50.916;13.352;2022-09-25T02:26:33;12.80;;;11.50;;
19087;SDS011;9676;50.916;13.352;2022-09-25T02:29:24;12.90;;;11.60;;
19087;SDS011;9676;50.916;13.352;2022-09-25T02:32:14;12.77;;;11.57;;
19087;SDS011;9676;50.916;13.352;2022-09-25T02:35:07;14.50;;;12.10;;
19087;SDS011;9676;50.916;13.352;2022-09-25T02:37:58;13.10;;;11.80;;
19087;SDS011;9676;50.916;13.352;2022-09-25T02:40:49;13.00;;;11.80;;
19087;SDS011;9676;50.916;13.352;2022-09-25T02:43:44;12.90;;;11.70;;
19087;SDS011;9676;50.916;13.352;2022-09-25T02:46:47;13.10;;;11.87;;
19087;SDS011;9676;50.916;13.352;2022-09-25T02:49:46;13.10;;;11.80;;
19087;SDS011;9676;50.916;13.352;2022-09-25T02:52:45;12.83;;;11.53;;
19087;SDS011;9676;50.916;13.352;2022-09-25T02:55:43;12.87;;;11.67;;
19087;SDS011;9676;50.916;13.352;2022-09-25T02:58:38;12.97;;;11.70;;
19087;SDS011;9676;50.916;13.352;2022-09-25T03:01:32;12.43;;;11.13;;
19087;SDS011;9676;50.916;13.352;2022-09-25T03:04:26;12.80;;;11.60;;
19087;SDS011;9676;50.916;13.352;2022-09-25T03:07:17;13.00;;;11.70;;
19087;SDS011;9676;50.916;13.352;2022-09-25T03:10:07;13.00;;;11.80;;
19087;SDS011;9676;50.916;13.352;2022-09-25T03:12:58;13.77;;;11.60;;
19087;SDS011;9676;50.916;13.352;2022-09-25T03:16:06;12.53;;;11.30;;
19087;SDS011;9676;50.916;13.352;2022-09-25T03:18:59;12.83;;;11.63;;
19087;SDS011;9676;50.916;13.352;2022-09-25T03:21:49;12.60;;;11.40;;
19087;SDS011;9676;50.916;13.352;2022-09-25T03:24:38;13.00;;;11.27;;
19087;SDS011;9676;50.916;13.352;2022-09-25T03:27:27;12.97;;;11.67;;
19087;SDS011;9676;50.916;13.352;2022-09-25T03:30:18;14.20;;;12.80;;
19087;SDS011;9676;50.916;13.352;2022-09-25T03:33:07;12.83;;;11.63;;
19087;SDS011;9676;50.916;13.352;2022-09-25T03:35:59;12.70;;;11.40;;
19087;SDS011;9676;50.916;13.352;2022-09-25T03:38:52;13.50;;;11.90;;
19087;SDS011;9676;50.916;13.352;2022-09-25T03:41:44;13.47;;;12.17;;
19087;SDS011;9676;50.916;13.352;2022-09-25T03:44:34;13.40;;;11.50;;
19087;SDS011;9676;50.916;13.352;2022-09-25T03:47:24;13.03;;;11.50;;
19087;SDS011;9676;50.916;13.352;2022-09-25T03:50:14;13.47;;;12.17;;
19087;SDS011;9676;50.916;13.352;2022-09-25T03:53:03;12.33;;;11.23;;
19087;SDS011;9676;50.916;13.352;2022-09-25T03:55:53;13.13;;;11.70;;
19087;SDS011;9676;50.916;13.352;2022-09-25T03:58:42;12.67;;;11.43;;
19087;SDS011;9676;50.916;13.352;2022-09-25T04:01:32;12.57;;;11.37;;
19087;SDS011;9676;50.916;13.352;2022-09-25T04:04:24;14.03;;;11.20;;
19087;SDS011;9676;50.916;13.352;2022-09-25T04:07:14;12.40;;;11.20;;
19087;SDS011;9676;50.916;13.352;2022-09-25T04:10:03;12.80;;;11.50;;
19087;SDS011;9676;50.916;13.352;2022-09-25T04:12:54;12.17;;;10.97;;
19087;SDS011;9676;50.916;13.352;2022-09-25T04:15:43;13.77;;;12.37;;
19087;SDS011;9676;50.916;13.352;2022-09-25T04:18:33;12.60;;;11.30;;
19087;SDS011;9676;50.916;13.352;2022-09-25T04:21:24;12.90;;;11.70;;
19087;SDS011;9676;50.916;13.352;2022-09-25T04:24:13;13.80;;;12.50;;
19087;SDS011;9676;50.916;13.352;2022-09-25T04:27:20;13.50;;;12.10;;
19087;SDS011;9676;50.916;13.352;2022-09-25T04:30:11;13.10;;;11.80;;
19087;SDS011;9676;50.916;13.352;2022-09-25T04:33:00;13.30;;;11.73;;
19087;SDS011;9676;50.916;13.352;2022-09-25T04:36:07;12.93;;;11.70;;
19087;SDS011;9676;50.916;13.352;2022-09-25T04:38:58;13.10;;;11.80;;
19087;SDS011;9676;50.916;13.352;2022-09-25T04:41:48;12.50;;;11.30;;
19087;SDS011;9676;50.916;13.352;2022-09-25T04:44:37;12.33;;;11.23;;
19087;SDS011;9676;50.916;13.352;2022-09-25T04:47:27;12.23;;;11.13;;
19087;SDS011;9676;50.916;13.352;2022-09-25T04:50:17;13.10;;;11.80;;
19087;SDS011;9676;50.916;13.352;2022-09-25T04:53:06;13.53;;;12.23;;
19087;SDS011;9676;50.916;13.352;2022-09-25T04:56:00;12.60;;;11.33;;
19087;SDS011;9676;50.916;13.352;2022-09-25T04:58:51;12.50;;;11.40;;
19087;SDS011;9676;50.916;13.352;2022-09-25T05:01:41;12.70;;;11.53;;
19087;SDS011;9676;50.916;13.352;2022-09-25T05:04:30;12.70;;;11.50;;
19087;SDS011;9676;50.916;13.352;2022-09-25T05:07:20;12.10;;;10.93;;
19087;SDS011;9676;50.916;13.352;2022-09-25T05:10:09;12.33;;;11.17;;
19087;SDS011;9676;50.916;13.352;2022-09-25T05:13:01;12.33;;;11.13;;
19087;SDS011;9676;50.916;13.352;2022-09-25T05:15:51;97.37;;;50.17;;
19087;SDS011;9676;50.916;13.352;2022-09-25T05:18:42;80.50;;;43.43;;
19087;SDS011;9676;50.916;13.352;2022-09-25T05:21:32;51.83;;;29.50;;
19087;SDS011;9676;50.916;13.352;2022-09-25T05:24:21;37.43;;;24.40;;
19087;SDS011;9676;50.916;13.352;2022-09-25T05:27:11;28.40;;;20.00;;
19087;SDS011;9676;50.916;13.352;2022-09-25T05:30:01;25.23;;;18.20;;
19087;SDS011;9676;50.916;13.352;2022-09-25T05:32:52;18.30;;;15.00;;
19087;SDS011;9676;50.916;13.352;2022-09-25T05:35:44;16.70;;;14.33;;
19087;SDS011;9676;50.916;13.352;2022-09-25T05:38:36;14.30;;;12.80;;
19087;SDS011;9676;50.916;13.352;2022-09-25T05:41:27;14.00;;;12.60;;
19087;SDS011;9676;50.916;13.352;2022-09-25T05:44:17;13.83;;;12.40;;
19087;SDS011;9676;50.916;13.352;2022-09-25T05:47:08;12.73;;;11.50;;
19087;SDS011;9676;50.916;13.352;2022-09-25T05:49:58;13.43;;;12.13;;
19087;SDS011;9676;50.916;13.352;2022-09-25T05:52:53;12.53;;;11.40;;
19087;SDS011;9676;50.916;13.352;2022-09-25T05:55:47;12.43;;;11.27;;
19087;SDS011;9676;50.916;13.352;2022-09-25T05:58:37;12.50;;;11.30;;
19087;SDS011;9676;50.916;13.352;2022-09-25T06:01:27;12.17;;;11.07;;
19087;SDS011;9676;50.916;13.352;2022-09-25T06:04:17;12.57;;;11.37;;
19087;SDS011;9676;50.916;13.352;2022-09-25T06:07:08;13.20;;;11.90;;
19087;SDS011;9676;50.916;13.352;2022-09-25T06:09:57;13.30;;;12.10;;
19087;SDS011;9676;50.916;13.352;2022-09-25T06:12:46;12.13;;;11.03;;
19087;SDS011;9676;50.916;13.352;2022-09-25T06:15:36;12.23;;;11.03;;
19087;SDS011;9676;50.916;13.352;2022-09-25T06:18:28;13.00;;;11.80;;
19087;SDS011;9676;50.916;13.352;2022-09-25T06:21:19;13.50;;;12.20;;
19087;SDS011;9676;50.916;13.352;2022-09-25T06:24:09;13.60;;;12.20;;
19087;SDS011;9676;50.916;13.352;2022-09-25T06:26:58;13.00;;;11.80;;
19087;SDS011;9676;50.916;13.352;2022-09-25T06:29:48;12.60;;;11.50;;
19087;SDS011;9676;50.916;13.352;2022-09-25T06:32:37;13.17;;;11.47;;
19087;SDS011;9676;50.916;13.352;2022-09-25T06:35:27;12.27;;;11.17;;
19087;SDS011;9676;50.916;13.352;2022-09-25T06:38:18;12.37;;;11.17;;
19087;SDS011;9676;50.916;13.352;2022-09-25T06:41:07;12.10;;;10.90;;
19087;SDS011;9676;50.916;13.352;2022-09-25T06:43:57;12.20;;;11.00;;
19087;SDS011;9676;50.916;13.352;2022-09-25T06:46:47;12.57;;;11.30;;
19087;SDS011;9676;50.916;13.352;2022-09-25T06:49:38;12.80;;;11.43;;
19087;SDS011;9676;50.916;13.352;2022-09-25T06:52:27;11.93;;;10.83;;
19087;SDS011;9676;50.916;13.352;2022-09-25T06:55:18;15.50;;;13.90;;
19087;SDS011;9676;50.916;13.352;2022-09-25T06:58:09;16.20;;;14.50;;
19087;SDS011;9676;50.916;13.352;2022-09-25T07:01:00;15.30;;;13.47;;
19087;SDS011;9676;50.916;13.352;2022-09-25T07:03:56;13.70;;;12.40;;
19087;SDS011;9676;50.916;13.352;2022-09-25T07:06:44;13.57;;;12.27;;
19087;SDS011;9676;50.916;13.352;2022-09-25T07:09:34;13.10;;;11.90;;
19087;SDS011;9676;50.916;13.352;2022-09-25T07:12:24;13.03;;;11.73;;
19087;SDS011;9676;50.916;13.352;2022-09-25T07:15:14;12.57;;;11.37;;
19087;SDS011;9676;50.916;13.352;2022-09-25T07:18:04;12.47;;;11.17;;
19087;SDS011;9676;50.916;13.352;2022-09-25T07:20:58;12.40;;;11.20;;
19087;SDS011;9676;50.916;13.352;2022-09-25T07:23:49;12.10;;;11.00;;
19087;SDS011;9676;50.916;13.352;2022-09-25T07:26:39;12.17;;;11.07;;
19087;SDS011;9676;50.916;13.352;2022-09-25T07:29:31;12.37;;;11.07;;
19087;SDS011;9676;50.916;13.352;2022-09-25T07:32:21;12.73;;;11.53;;
19087;SDS011;9676;50.916;13.352;2022-09-25T07:35:11;12.37;;;11.20;;
19087;SDS011;9676;50.916;13.352;2022-09-25T07:38:00;12.77;;;11.57;;
19087;SDS011;9676;50.916;13.352;2022-09-25T07:40:51;12.40;;;11.10;;
19087;SDS011;9676;50.916;13.352;2022-09-25T07:43:41;12.47;;;11.27;;
19087;SDS011;9676;50.916;13.352;2022-09-25T07:46:31;12.83;;;11.53;;
19087;SDS011;9676;50.916;13.352;2022-09-25T07:49:21;12.47;;;11.27;;
19087;SDS011;9676;50.916;13.352;2022-09-25T07:52:10;12.33;;;11.13;;
19087;SDS011;9676;50.916;13.352;2022-09-25T07:55:00;12.50;;;11.30;;
19087;SDS011;9676;50.916;13.352;2022-09-25T07:57:50;14.33;;;11.23;;
19087;SDS011;9676;50.916;13.352;2022-09-25T08:00:44;12.60;;;11.30;;
19087;SDS011;9676;50.916;13.352;2022-09-25T08:03:34;12.10;;;10.90;;
19087;SDS011;9676;50.916;13.352;2022-09-25T08:06:24;12.07;;;10.90;;
19087;SDS011;9676;50.916;13.352;2022-09-25T08:09:13;12.13;;;10.97;;
19087;SDS011;9676;50.916;13.352;2022-09-25T08:12:03;12.53;;;11.30;;
19087;SDS011;9676;50.916;13.352;2022-09-25T08:14:52;12.40;;;11.10;;
19087;SDS011;9676;50.916;13.352;2022-09-25T08:17:42;12.77;;;10.90;;
19087;SDS011;9676;50.916;13.352;2022-09-25T08:20:32;12.03;;;10.83;;
19087;SDS011;9676;50.916;13.352;2022-09-25T08:23:26;11.67;;;10.57;;
19087;SDS011;9676;50.916;13.352;2022-09-25T08:26:15;12.07;;;10.83;;
19087;SDS011;9676;50.916;13.352;2022-09-25T08:29:07;11.63;;;10.53;;
19087;SDS011;9676;50.916;13.352;2022-09-25T08:31:58;12.27;;;11.07;;
19087;SDS011;9676;50.916;13.352;2022-09-25T08:34:48;11.53;;;10.40;;
19087;SDS011;9676;50.916;13.352;2022-09-25T08:37:41;11.63;;;10.53;;
19087;SDS011;9676;50.916;13.352;2022-09-25T08:40:32;11.60;;;10.50;;
19087;SDS011;9676;50.916;13.352;2022-09-25T08:43:33;11.20;;;10.10;;
19087;SDS011;9676;50.916;13.352;2022-09-25T08:46:34;11.40;;;10.20;;
19087;SDS011;9676;50.916;13.352;2022-09-25T08:49:49;10.73;;;9.73;;
19087;SDS011;9676;50.916;13.352;2022-09-25T08:52:50;11.03;;;9.80;;
19087;SDS011;9676;50.916;13.352;2022-09-25T08:55:47;10.37;;;9.47;;
19087;SDS011;9676;50.916;13.352;2022-09-25T08:58:55;10.63;;;9.60;;
19087;SDS011;9676;50.916;13.352;2022-09-25T09:01:54;10.80;;;9.70;;
19087;SDS011;9676;50.916;13.352;2022-09-25T09:04:47;10.17;;;9.20;;
19087;SDS011;9676;50.916;13.352;2022-09-25T09:07:41;10.63;;;9.50;;
19087;SDS011;9676;50.916;13.352;2022-09-25T09:10:39;10.00;;;9.10;;
19087;SDS011;9676;50.916;13.352;2022-09-25T09:13:33;9.87;;;8.97;;
19087;SDS011;9676;50.916;13.352;2022-09-25T09:16:32;9.40;;;8.60;;
19087;SDS011;9676;50.916;13.352;2022-09-25T09:19:28;9.80;;;9.00;;
19087;SDS011;9676;50.916;13.352;2022-09-25T09:22:19;9.53;;;8.70;;
19087;SDS011;9676;50.916;13.352;2022-09-25T09:25:18;9.17;;;8.47;;
19087;SDS011;9676;50.916;13.352;2022-09-25T09:28:22;9.33;;;8.47;;
19087;SDS011;9676;50.916;13.352;2022-09-25T09:31:40;9.90;;;9.00;;
19087;SDS011;9676;50.916;13.352;2022-09-25T09:34:42;9.30;;;8.50;;
19087;SDS011;9676;50.916;13.352;2022-09-25T09:37:57;10.07;;;9.10;;
19087;SDS011;9676;50.916;13.352;2022-09-25T09:41:03;9.43;;;8.63;;
19087;SDS011;9676;50.916;13.352;2022-09-25T09:44:21;9.10;;;8.40;;
19087;SDS011;9676;50.916;13.352;2022-09-25T09:47:29;9.38;;;8.57;;
19087;SDS011;9676;50.916;13.352;2022-09-25T09:50:31;9.10;;;8.30;;
19087;SDS011;9676;50.916;13.352;2022-09-25T09:53:33;9.23;;;8.48;;
19087;SDS011;9676;50.916;13.352;2022-09-25T09:56:28;9.55;;;8.75;;
19087;SDS011;9676;50.916;13.352;2022-09-25T09:59:24;9.15;;;8.40;;
19087;SDS011;9676;50.916;13.352;2022-09-25T10:02:23;9.00;;;8.20;;
19087;SDS011;9676;50.916;13.352;2022-09-25T10:05:23;8.95;;;8.05;;
19087;SDS011;9676;50.916;13.352;2022-09-25T10:08:15;9.07;;;8.38;;
19087;SDS011;9676;50.916;13.352;2022-09-25T10:11:08;9.18;;;8.38;;
19087;SDS011;9676;50.916;13.352;2022-09-25T10:14:02;8.90;;;8.20;;
19087;SDS011;9676;50.916;13.352;2022-09-25T10:16:54;8.88;;;8.18;;
19087;SDS011;9676;50.916;13.352;2022-09-25T10:19:46;8.88;;;8.15;;
19087;SDS011;9676;50.916;13.352;2022-09-25T10:22:41;9.10;;;8.30;;
19087;SDS011;9676;50.916;13.352;2022-09-25T10:25:34;8.77;;;8.07;;
19087;SDS011;9676;50.916;13.352;2022-09-25T10:28:27;8.68;;;7.97;;
19087;SDS011;9676;50.916;13.352;2022-09-25T10:31:18;8.68;;;7.97;;
19087;SDS011;9676;50.916;13.352;2022-09-25T10:34:15;8.93;;;8.23;;
19087;SDS011;9676;50.916;13.352;2022-09-25T10:37:12;8.90;;;8.10;;
19087;SDS011;9676;50.916;13.352;2022-09-25T10:40:06;8.80;;;8.02;;
19087;SDS011;9676;50.916;13.352;2022-09-25T10:43:15;8.70;;;7.90;;
19087;SDS011;9676;50.916;13.352;2022-09-25T10:46:11;9.10;;;8.20;;
19087;SDS011;9676;50.916;13.352;2022-09-25T10:49:09;8.80;;;8.00;;
19087;SDS011;9676;50.916;13.352;2022-09-25T10:52:22;9.13;;;8.23;;
19087;SDS011;9676;50.916;13.352;2022-09-25T10:55:13;8.68;;;8.05;;
19087;SDS011;9676;50.916;13.352;2022-09-25T10:58:11;8.60;;;7.90;;
19087;SDS011;9676;50.916;13.352;2022-09-25T11:01:06;8.93;;;8.20;;
19087;SDS011;9676;50.916;13.352;2022-09-25T11:04:00;8.82;;;8.13;;
19087;SDS011;9676;50.916;13.352;2022-09-25T11:06:57;8.70;;;8.00;;
19087;SDS011;9676;50.916;13.352;2022-09-25T11:09:51;9.10;;;8.20;;
19087;SDS011;9676;50.916;13.352;2022-09-25T11:12:46;14.52;;;13.20;;
19087;SDS011;9676;50.916;13.352;2022-09-25T11:15:36;11.90;;;10.80;;
19087;SDS011;9676;50.916;13.352;2022-09-25T11:18:33;10.65;;;9.75;;
19087;SDS011;9676;50.916;13.352;2022-09-25T11:21:28;10.20;;;9.30;;
19087;SDS011;9676;50.916;13.352;2022-09-25T11:24:23;9.80;;;8.90;;
19087;SDS011;9676;50.916;13.352;2022-09-25T11:27:25;9.90;;;9.00;;
19087;SDS011;9676;50.916;13.352;2022-09-25T11:30:22;9.97;;;9.07;;
19087;SDS011;9676;50.916;13.352;2022-09-25T11:33:14;9.80;;;8.90;;
19087;SDS011;9676;50.916;13.352;2022-09-25T11:36:14;9.43;;;8.63;;
19087;SDS011;9676;50.916;13.352;2022-09-25T11:39:07;9.70;;;8.80;;
19087;SDS011;9676;50.916;13.352;2022-09-25T11:42:23;9.60;;;8.70;;
19087;SDS011;9676;50.916;13.352;2022-09-25T11:45:16;9.80;;;8.90;;
19087;SDS011;9676;50.916;13.352;2022-09-25T11:48:15;10.20;;;9.30;;
19087;SDS011;9676;50.916;13.352;2022-09-25T11:51:14;10.53;;;9.53;;
19087;SDS011;9676;50.916;13.352;2022-09-25T11:54:16;10.20;;;9.30;;
19087;SDS011;9676;50.916;13.352;2022-09-25T11:57:24;10.23;;;9.33;;
19087;SDS011;9676;50.916;13.352;2022-09-25T12:00:23;10.53;;;9.53;;
19087;SDS011;9676;50.916;13.352;2022-09-25T12:03:27;10.97;;;9.77;;
19087;SDS011;9676;50.916;13.352;2022-09-25T12:06:37;10.60;;;9.60;;
19087;SDS011;9676;50.916;13.352;2022-09-25T12:10:02;10.57;;;9.60;;
19087;SDS011;9676;50.916;13.352;2022-09-25T12:13:17;10.97;;;9.97;;
19087;SDS011;9676;50.916;13.352;2022-09-25T12:16:17;10.67;;;9.67;;
19087;SDS011;9676;50.916;13.352;2022-09-25T12:19:15;11.40;;;10.40;;
19087;SDS011;9676;50.916;13.352;2022-09-25T12:22:19;11.20;;;10.10;;
19087;SDS011;9676;50.916;13.352;2022-09-25T12:25:23;11.03;;;10.03;;
19087;SDS011;9676;50.916;13.352;2022-09-25T12:28:28;14.13;;;10.07;;
19087;SDS011;9676;50.916;13.352;2022-09-25T12:31:28;10.70;;;9.70;;
19087;SDS011;9676;50.916;13.352;2022-09-25T12:34:30;11.07;;;10.00;;
19087;SDS011;9676;50.916;13.352;2022-09-25T12:37:38;21.00;;;17.10;;
19087;SDS011;9676;50.916;13.352;2022-09-25T12:40:33;15.03;;;13.53;;
19087;SDS011;9676;50.916;13.352;2022-09-25T12:43:32;13.10;;;11.80;;
19087;SDS011;9676;50.916;13.352;2022-09-25T12:46:29;12.70;;;11.50;;
19087;SDS011;9676;50.916;13.352;2022-09-25T12:49:30;11.63;;;10.50;;
19087;SDS011;9676;50.916;13.352;2022-09-25T12:52:26;11.73;;;10.63;;
19087;SDS011;9676;50.916;13.352;2022-09-25T12:55:22;14.27;;;10.40;;
19087;SDS011;9676;50.916;13.352;2022-09-25T12:58:17;11.73;;;10.60;;
19087;SDS011;9676;50.916;13.352;2022-09-25T13:01:21;11.10;;;10.07;;
19087;SDS011;9676;50.916;13.352;2022-09-25T13:07:47;11.47;;;10.23;;
19087;SDS011;9676;50.916;13.352;2022-09-25T13:10:43;11.00;;;9.90;;
19087;SDS011;9676;50.916;13.352;2022-09-25T13:13:36;10.90;;;9.90;;
19087;SDS011;9676;50.916;13.352;2022-09-25T13:16:33;11.13;;;10.03;;
19087;SDS011;9676;50.916;13.352;2022-09-25T13:19:24;11.73;;;10.50;;
19087;SDS011;9676;50.916;13.352;2022-09-25T13:22:17;11.60;;;10.40;;
19087;SDS011;9676;50.916;13.352;2022-09-25T13:25:11;11.20;;;10.10;;
19087;SDS011;9676;50.916;13.352;2022-09-25T13:28:05;11.40;;;10.33;;
19087;SDS011;9676;50.916;13.352;2022-09-25T13:30:57;11.27;;;10.17;;
19087;SDS011;9676;50.916;13.352;2022-09-25T13:34:03;11.37;;;10.27;;
19087;SDS011;9676;50.916;13.352;2022-09-25T13:37:00;11.30;;;10.20;;
19087;SDS011;9676;50.916;13.352;2022-09-25T13:39:54;11.40;;;10.30;;
19087;SDS011;9676;50.916;13.352;2022-09-25T13:46:24;11.37;;;10.30;;
19087;SDS011;9676;50.916;13.352;2022-09-25T13:49:34;11.70;;;10.60;;
19087;SDS011;9676;50.916;13.352;2022-09-25T13:52:27;11.83;;;10.63;;
19087;SDS011;9676;50.916;13.352;2022-09-25T13:55:17;11.50;;;10.40;;
19087;SDS011;9676;50.916;13.352;2022-09-25T13:58:16;11.93;;;10.80;;
19087;SDS011;9676;50.916;13.352;2022-09-25T14:01:09;11.40;;;10.40;;
19087;SDS011;9676;50.916;13.352;2022-09-25T14:04:09;12.20;;;11.00;;
19087;SDS011;9676;50.916;13.352;2022-09-25T14:07:11;11.90;;;10.80;;
19087;SDS011;9676;50.916;13.352;2022-09-25T14:10:07;11.57;;;10.47;;
19087;SDS011;9676;50.916;13.352;2022-09-25T14:12:58;12.40;;;11.20;;
19087;SDS011;9676;50.916;13.352;2022-09-25T14:15:54;12.07;;;10.73;;
19087;SDS011;9676;50.916;13.352;2022-09-25T14:18:46;12.43;;;11.13;;
19087;SDS011;9676;50.916;13.352;2022-09-25T14:21:41;13.20;;;11.07;;
19087;SDS011;9676;50.916;13.352;2022-09-25T14:24:40;14.50;;;10.50;;
19087;SDS011;9676;50.916;13.352;2022-09-25T14:27:31;11.27;;;10.17;;
19087;SDS011;9676;50.916;13.352;2022-09-25T14:30:20;11.30;;;10.30;;
19087;SDS011;9676;50.916;13.352;2022-09-25T14:33:25;12.30;;;11.10;;
19087;SDS011;9676;50.916;13.352;2022-09-25T14:36:33;12.10;;;11.00;;
19087;SDS011;9676;50.916;13.352;2022-09-25T14:39:39;13.10;;;10.97;;
19087;SDS011;9676;50.916;13.352;2022-09-25T14:42:42;12.10;;;10.90;;
19087;SDS011;9676;50.916;13.352;2022-09-25T14:45:54;12.10;;;10.90;;
19087;SDS011;9676;50.916;13.352;2022-09-25T14:48:51;13.73;;;10.80;;
19087;SDS011;9676;50.916;13.352;2022-09-25T14:51:44;11.37;;;10.27;;
19087;SDS011;9676;50.916;13.352;2022-09-25T14:54:36;11.50;;;10.40;;
19087;SDS011;9676;50.916;13.352;2022-09-25T14:57:34;11.63;;;10.53;;
19087;SDS011;9676;50.916;13.352;2022-09-25T15:00:24;11.60;;;10.43;;
19087;SDS011;9676;50.916;13.352;2022-09-25T15:03:15;11.83;;;10.73;;
19087;SDS011;9676;50.916;13.352;2022-09-25T15:06:09;13.20;;;11.03;;
19087;SDS011;9676;50.916;13.352;2022-09-25T15:09:05;12.50;;;11.30;;
19087;SDS011;9676;50.916;13.352;2022-09-25T15:12:19;12.93;;;11.57;;
19087;SDS011;9676;50.916;13.352;2022-09-25T15:15:12;12.10;;;10.90;;
19087;SDS011;9676;50.916;13.352;2022-09-25T15:18:03;12.40;;;11.20;;
19087;SDS011;9676;50.916;13.352;2022-09-25T15:20:54;11.60;;;10.50;;
19087;SDS011;9676;50.916;13.352;2022-09-25T15:23:44;12.20;;;10.93;;
19087;SDS011;9676;50.916;13.352;2022-09-25T15:26:35;12.03;;;10.83;;
19087;SDS011;9676;50.916;13.352;2022-09-25T15:29:31;11.43;;;10.33;;
19087;SDS011;9676;50.916;13.352;2022-09-25T15:32:24;11.73;;;10.63;;
19087;SDS011;9676;50.916;13.352;2022-09-25T15:35:25;11.93;;;10.73;;
19087;SDS011;9676;50.916;13.352;2022-09-25T15:38:15;12.47;;;10.60;;
19087;SDS011;9676;50.916;13.352;2022-09-25T15:41:05;12.30;;;11.10;;
19087;SDS011;9676;50.916;13.352;2022-09-25T15:44:09;11.87;;;10.67;;
19087;SDS011;9676;50.916;13.352;2022-09-25T15:47:04;11.83;;;10.73;;
19087;SDS011;9676;50.916;13.352;2022-09-25T15:49:54;11.93;;;10.83;;
19087;SDS011;9676;50.916;13.352;2022-09-25T15:52:44;12.30;;;11.10;;
19087;SDS011;9676;50.916;13.352;2022-09-25T15:55:38;14.80;;;11.50;;
19087;SDS011;9676;50.916;13.352;2022-09-25T15:58:28;12.93;;;11.47;;
19087;SDS011;9676;50.916;13.352;2022-09-25T16:01:18;12.13;;;11.00;;
19087;SDS011;9676;50.916;13.352;2022-09-25T16:04:29;12.30;;;11.20;;
19087;SDS011;9676;50.916;13.352;2022-09-25T16:07:36;12.23;;;11.10;;
19087;SDS011;9676;50.916;13.352;2022-09-25T16:10:28;12.40;;;11.20;;
19087;SDS011;9676;50.916;13.352;2022-09-25T16:13:21;11.80;;;10.70;;
19087;SDS011;9676;50.916;13.352;2022-09-25T16:16:17;12.27;;;11.07;;
19087;SDS011;9676;50.916;13.352;2022-09-25T16:19:18;11.80;;;10.70;;
19087;SDS011;9676;50.916;13.352;2022-09-25T16:22:20;11.23;;;10.23;;
19087;SDS011;9676;50.916;13.352;2022-09-25T16:25:18;12.03;;;10.93;;
19087;SDS011;9676;50.916;13.352;2022-09-25T16:28:13;11.43;;;10.43;;
19087;SDS011;9676;50.916;13.352;2022-09-25T16:31:07;11.60;;;10.50;;
19087;SDS011;9676;50.916;13.352;2022-09-25T16:33:57;11.60;;;10.50;;
19087;SDS011;9676;50.916;13.352;2022-09-25T16:36:47;11.40;;;10.30;;
19087;SDS011;9676;50.916;13.352;2022-09-25T16:39:39;11.70;;;10.60;;
19087;SDS011;9676;50.916;13.352;2022-09-25T16:42:29;11.90;;;10.80;;
19087;SDS011;9676;50.916;13.352;2022-09-25T16:45:27;12.00;;;10.80;;
19087;SDS011;9676;50.916;13.352;2022-09-25T16:48:25;11.67;;;10.60;;
19087;SDS011;9676;50.916;13.352;2022-09-25T16:51:18;11.47;;;10.40;;
19087;SDS011;9676;50.916;13.352;2022-09-25T16:54:13;12.00;;;10.90;;
19087;SDS011;9676;50.916;13.352;2022-09-25T16:57:07;12.03;;;10.93;;
19087;SDS011;9676;50.916;13.352;2022-09-25T17:00:03;11.67;;;10.57;;
19087;SDS011;9676;50.916;13.352;2022-09-25T17:02:54;11.60;;;10.50;;
19087;SDS011;9676;50.916;13.352;2022-09-25T17:05:44;11.63;;;10.53;;
19087;SDS011;9676;50.916;13.352;2022-09-25T17:08:33;11.77;;;10.70;;
19087;SDS011;9676;50.916;13.352;2022-09-25T17:11:22;11.90;;;10.80;;
19087;SDS011;9676;50.916;13.352;2022-09-25T17:14:19;11.90;;;10.80;;